This is the latest recevied weather packets stored in our database for station/object DH0DM-13. If no packets are shown the sender has not sent any weather packets the latest 10 day(s).
| Time | Temp. | Humidity | Pressure | Rain* | Wind** | Luminosity | Snow |
|---|---|---|---|---|---|---|---|
| 1787903043 | 21.67° C | 62% | 985.9 hPa | 0 mm | 4.02 m/s, 80° | - | - |
| 1787902442 | 21.67° C | 63% | 985.8 hPa | 0 mm | 0.45 m/s, 91° | - | - |
| 1787901841 | 21.11° C | 63% | 985.4 hPa | 0 mm | 7.15 m/s, 88° | - | - |
| 1787901241 | 21.67° C | 62% | 986.3 hPa | 0 mm | 4.92 m/s, 159° | - | - |
| 1787900640 | 21.11° C | 64% | 986.3 hPa | 0 mm | 2.24 m/s, 351° | - | - |
| 1787900039 | 20.56° C | 65% | 986.2 hPa | 0 mm | 2.68 m/s, 214° | - | - |
| 1787899438 | 20.56° C | 65% | 986.2 hPa | 0 mm | 4.92 m/s, 250° | - | - |
| 1787898837 | 20.56° C | 64% | 985.3 hPa | 0 mm | 4.47 m/s, 94° | - | - |
| 1787898236 | 20.56° C | 64% | 985.8 hPa | 0 mm | 5.36 m/s, 42° | - | - |
| 1787897635 | 20.56° C | 63% | 986.1 hPa | 0 mm | 1.79 m/s, 50° | - | - |
| 1787897034 | 21.11° C | 63% | 986.5 hPa | 0 mm | 1.34 m/s, 158° | - | - |
| 1787896432 | 21.11° C | 62% | 986.4 hPa | 0 mm | 2.68 m/s, 88° | - | - |
| 1787895831 | 21.67° C | 61% | 986.2 hPa | 0 mm | 4.02 m/s, 121° | - | - |
| 1787895230 | 21.11° C | 62% | 986.8 hPa | 0 mm | 3.58 m/s, 240° | - | - |
| 1787894630 | 21.11° C | 62% | 986.8 hPa | 0 mm | 2.68 m/s, 245° | - | - |
| 1787894029 | 21.11° C | 62% | 986.9 hPa | 0 mm | 3.13 m/s, 180° | - | - |
| 1787893428 | 21.11° C | 63% | 986.6 hPa | 0 mm | 1.34 m/s, 79° | - | - |
| 1787892827 | 20.56° C | 65% | 986.4 hPa | 0 mm | 1.34 m/s, 243° | - | - |
| 1787892226 | 20.56° C | 63% | 985.6 hPa | 0 mm | 0 m/s | - | - |
| 1787891625 | 20.56° C | 62% | 985.3 hPa | 0 mm | 3.13 m/s, 95° | - | - |
| 1787891024 | 20.56° C | 62% | 985.3 hPa | 0 mm | 3.58 m/s, 132° | - | - |
| 1787890423 | 21.11° C | 61% | 985.4 hPa | 0 mm | 1.34 m/s, 76° | - | - |
| 1787889822 | 20.56° C | 61% | 985.5 hPa | 0 mm | 2.24 m/s, 80° | - | - |
| 1787889221 | 20.56° C | 61% | 985.6 hPa | 0 mm | 2.24 m/s, 74° | - | - |
| 1787888620 | 20.56° C | 61% | 985.6 hPa | 0 mm | 2.68 m/s, 87° | - | - |
* Rain since midnight (hover to see other rain measurements)
** Current wind speed in m/s (hover to see current wind gust speed)